sensor_id;sensor_type;location;lat;lon;timestamp;pressure;altitude;pressure_sealevel;temperature;humidity
35224;BME280;21367;51.930;8.112;2023-03-20T00:04:00;101212.34;;;8.98;100.00
35224;BME280;21367;51.930;8.112;2023-03-20T00:09:08;101218.88;;;9.08;100.00
35224;BME280;21367;51.930;8.112;2023-03-20T00:14:15;101230.94;;;9.09;100.00
35224;BME280;21367;51.930;8.112;2023-03-20T00:19:24;101229.84;;;9.06;100.00
35224;BME280;21367;51.930;8.112;2023-03-20T00:24:34;101230.41;;;9.00;100.00
35224;BME280;21367;51.930;8.112;2023-03-20T00:29:38;101218.94;;;8.93;100.00
35224;BME280;21367;51.930;8.112;2023-03-20T00:34:42;101210.06;;;9.03;100.00
35224;BME280;21367;51.930;8.112;2023-03-20T00:39:50;101222.53;;;8.97;100.00
35224;BME280;21367;51.930;8.112;2023-03-20T00:44:54;101217.66;;;8.87;100.00
35224;BME280;21367;51.930;8.112;2023-03-20T00:50:13;101235.25;;;8.80;100.00
35224;BME280;21367;51.930;8.112;2023-03-20T00:55:23;101221.91;;;8.86;100.00
35224;BME280;21367;51.930;8.112;2023-03-20T01:00:35;101222.00;;;8.73;100.00
35224;BME280;21367;51.930;8.112;2023-03-20T01:05:46;101209.50;;;9.09;100.00
35224;BME280;21367;51.930;8.112;2023-03-20T01:10:55;101212.81;;;8.91;100.00
35224;BME280;21367;51.930;8.112;2023-03-20T01:16:03;101206.34;;;9.13;100.00
35224;BME280;21367;51.930;8.112;2023-03-20T01:21:09;101199.06;;;9.06;100.00
35224;BME280;21367;51.930;8.112;2023-03-20T01:26:26;101204.28;;;9.22;100.00
35224;BME280;21367;51.930;8.112;2023-03-20T01:31:36;101209.81;;;9.30;100.00
35224;BME280;21367;51.930;8.112;2023-03-20T01:36:47;101208.91;;;9.13;100.00
35224;BME280;21367;51.930;8.112;2023-03-20T01:41:57;101231.09;;;8.97;100.00
35224;BME280;21367;51.930;8.112;2023-03-20T01:47:15;101241.19;;;9.09;100.00
35224;BME280;21367;51.930;8.112;2023-03-20T01:52:23;101255.22;;;9.16;100.00
35224;BME280;21367;51.930;8.112;2023-03-20T01:57:34;101251.03;;;9.33;100.00
35224;BME280;21367;51.930;8.112;2023-03-20T02:02:44;101252.59;;;9.45;100.00
35224;BME280;21367;51.930;8.112;2023-03-20T02:08:42;101247.41;;;9.29;100.00
35224;BME280;21367;51.930;8.112;2023-03-20T02:13:54;101254.94;;;9.11;100.00
35224;BME280;21367;51.930;8.112;2023-03-20T02:19:04;101252.94;;;9.52;100.00
35224;BME280;21367;51.930;8.112;2023-03-20T02:24:32;101243.31;;;9.47;100.00
35224;BME280;21367;51.930;8.112;2023-03-20T02:30:20;101233.19;;;9.34;100.00
35224;BME280;21367;51.930;8.112;2023-03-20T02:35:54;101241.88;;;9.21;100.00
35224;BME280;21367;51.930;8.112;2023-03-20T02:41:16;101238.44;;;9.06;100.00
35224;BME280;21367;51.930;8.112;2023-03-20T02:46:32;101238.84;;;9.29;100.00
35224;BME280;21367;51.930;8.112;2023-03-20T02:51:53;101251.31;;;9.22;100.00
35224;BME280;21367;51.930;8.112;2023-03-20T02:57:20;101250.16;;;9.17;100.00
35224;BME280;21367;51.930;8.112;2023-03-20T03:02:32;101254.41;;;9.17;100.00
35224;BME280;21367;51.930;8.112;2023-03-20T03:07:40;101264.72;;;9.33;100.00
35224;BME280;21367;51.930;8.112;2023-03-20T03:12:51;101269.66;;;8.84;100.00
35224;BME280;21367;51.930;8.112;2023-03-20T03:17:59;101262.22;;;8.89;100.00
35224;BME280;21367;51.930;8.112;2023-03-20T03:23:17;101260.00;;;9.10;100.00
35224;BME280;21367;51.930;8.112;2023-03-20T03:28:28;101261.88;;;8.83;100.00
35224;BME280;21367;51.930;8.112;2023-03-20T03:33:38;101269.66;;;8.84;100.00
35224;BME280;21367;51.930;8.112;2023-03-20T03:38:55;101268.59;;;8.66;100.00
35224;BME280;21367;51.930;8.112;2023-03-20T03:44:15;101254.34;;;8.56;100.00
35224;BME280;21367;51.930;8.112;2023-03-20T03:49:26;101250.00;;;8.27;100.00
35224;BME280;21367;51.930;8.112;2023-03-20T03:54:34;101237.97;;;8.39;100.00
35224;BME280;21367;51.930;8.112;2023-03-20T04:00:08;101231.28;;;8.41;100.00
35224;BME280;21367;51.930;8.112;2023-03-20T04:05:15;101227.06;;;8.71;100.00
35224;BME280;21367;51.930;8.112;2023-03-20T04:10:21;101223.69;;;8.72;100.00
35224;BME280;21367;51.930;8.112;2023-03-20T04:15:29;101223.59;;;8.56;100.00
35224;BME280;21367;51.930;8.112;2023-03-20T04:20:33;101216.72;;;8.70;100.00
35224;BME280;21367;51.930;8.112;2023-03-20T04:25:39;101212.84;;;8.33;100.00
35224;BME280;21367;51.930;8.112;2023-03-20T04:30:51;101205.75;;;8.57;100.00
35224;BME280;21367;51.930;8.112;2023-03-20T04:36:08;101207.69;;;8.47;100.00
35224;BME280;21367;51.930;8.112;2023-03-20T04:41:15;101217.00;;;8.31;100.00
35224;BME280;21367;51.930;8.112;2023-03-20T04:46:29;101215.81;;;8.54;100.00
35224;BME280;21367;51.930;8.112;2023-03-20T04:51:35;101216.72;;;8.70;100.00
35224;BME280;21367;51.930;8.112;2023-03-20T04:56:41;101204.78;;;8.41;100.00
35224;BME280;21367;51.930;8.112;2023-03-20T05:01:54;101206.75;;;8.31;100.00
35224;BME280;21367;51.930;8.112;2023-03-20T05:06:59;101218.06;;;8.35;100.00
35224;BME280;21367;51.930;8.112;2023-03-20T05:12:12;101219.28;;;8.27;100.00
35224;BME280;21367;51.930;8.112;2023-03-20T05:18:02;101233.22;;;8.45;100.00
35224;BME280;21367;51.930;8.112;2023-03-20T05:23:26;101229.25;;;8.22;100.00
35224;BME280;21367;51.930;8.112;2023-03-20T05:28:51;101225.09;;;8.09;100.00
35224;BME280;21367;51.930;8.112;2023-03-20T05:34:17;101241.38;;;8.25;100.00
35224;BME280;21367;51.930;8.112;2023-03-20T05:39:47;101231.09;;;8.10;100.00
35224;BME280;21367;51.930;8.112;2023-03-20T05:45:35;101227.91;;;8.42;100.00
35224;BME280;21367;51.930;8.112;2023-03-20T05:50:55;101215.72;;;8.38;100.00
35224;BME280;21367;51.930;8.112;2023-03-20T05:56:15;101234.03;;;7.88;100.00
35224;BME280;21367;51.930;8.112;2023-03-20T06:01:54;101239.50;;;8.22;100.00
35224;BME280;21367;51.930;8.112;2023-03-20T06:07:04;101233.75;;;8.26;100.00
35224;BME280;21367;51.930;8.112;2023-03-20T06:12:11;101244.19;;;8.29;100.00
35224;BME280;21367;51.930;8.112;2023-03-20T06:17:17;101239.41;;;8.21;100.00
35224;BME280;21367;51.930;8.112;2023-03-20T06:22:29;101240.31;;;8.49;100.00
35224;BME280;21367;51.930;8.112;2023-03-20T06:27:33;101232.88;;;8.69;99.94
35224;BME280;21367;51.930;8.112;2023-03-20T06:32:38;101246.81;;;8.44;100.00
35224;BME280;21367;51.930;8.112;2023-03-20T06:37:47;101242.50;;;8.58;100.00
35224;BME280;21367;51.930;8.112;2023-03-20T06:42:59;101252.22;;;8.64;99.48
35224;BME280;21367;51.930;8.112;2023-03-20T06:48:18;101259.84;;;8.62;100.00
35224;BME280;21367;51.930;8.112;2023-03-20T06:53:26;101268.91;;;8.57;100.00
35224;BME280;21367;51.930;8.112;2023-03-20T06:58:40;101261.69;;;8.50;99.34
35224;BME280;21367;51.930;8.112;2023-03-20T07:03:45;101260.34;;;8.28;100.00
35224;BME280;21367;51.930;8.112;2023-03-20T07:08:57;101271.03;;;8.36;100.00
35224;BME280;21367;51.930;8.112;2023-03-20T07:14:05;101278.38;;;8.43;98.69
35224;BME280;21367;51.930;8.112;2023-03-20T07:19:20;101276.75;;;8.45;96.53
35224;BME280;21367;51.930;8.112;2023-03-20T07:24:32;101290.72;;;8.50;98.54
35224;BME280;21367;51.930;8.112;2023-03-20T07:29:37;101289.97;;;8.66;96.21
35224;BME280;21367;51.930;8.112;2023-03-20T07:34:50;101299.66;;;8.57;97.05
35224;BME280;21367;51.930;8.112;2023-03-20T07:39:58;101298.56;;;8.82;94.99
35224;BME280;21367;51.930;8.112;2023-03-20T07:45:18;101302.34;;;8.88;93.22
35224;BME280;21367;51.930;8.112;2023-03-20T07:50:22;101304.13;;;9.04;92.11
35224;BME280;21367;51.930;8.112;2023-03-20T07:55:29;101301.28;;;9.14;89.95
35224;BME280;21367;51.930;8.112;2023-03-20T08:00:32;101290.03;;;9.27;87.37
35224;BME280;21367;51.930;8.112;2023-03-20T08:05:37;101308.44;;;9.20;86.64
35224;BME280;21367;51.930;8.112;2023-03-20T08:10:46;101306.75;;;9.50;85.59
35224;BME280;21367;51.930;8.112;2023-03-20T08:15:50;101306.19;;;9.56;87.22
35224;BME280;21367;51.930;8.112;2023-03-20T08:20:54;101305.41;;;10.04;84.39
35224;BME280;21367;51.930;8.112;2023-03-20T08:26:01;101307.66;;;9.98;84.11
35224;BME280;21367;51.930;8.112;2023-03-20T08:31:06;101314.03;;;9.73;85.94
35224;BME280;21367;51.930;8.112;2023-03-20T08:36:10;101309.88;;;9.76;85.26
35224;BME280;21367;51.930;8.112;2023-03-20T08:41:17;101308.38;;;9.64;84.45
35224;BME280;21367;51.930;8.112;2023-03-20T08:46:21;101314.19;;;9.77;83.69
35224;BME280;21367;51.930;8.112;2023-03-20T08:51:25;101314.09;;;10.06;82.70
35224;BME280;21367;51.930;8.112;2023-03-20T08:56:32;101321.81;;;10.06;80.29
35224;BME280;21367;51.930;8.112;2023-03-20T09:01:35;101311.97;;;9.99;80.58
35224;BME280;21367;51.930;8.112;2023-03-20T09:06:39;101310.00;;;9.93;79.35
35224;BME280;21367;51.930;8.112;2023-03-20T09:11:46;101317.13;;;9.68;79.74
35224;BME280;21367;51.930;8.112;2023-03-20T09:16:51;101317.69;;;9.93;78.86
35224;BME280;21367;51.930;8.112;2023-03-20T09:21:55;101313.19;;;10.06;79.51
35224;BME280;21367;51.930;8.112;2023-03-20T09:27:02;101313.81;;;10.65;76.66
35224;BME280;21367;51.930;8.112;2023-03-20T09:32:06;101320.34;;;9.64;79.50
35224;BME280;21367;51.930;8.112;2023-03-20T09:37:10;101326.28;;;9.48;79.18
35224;BME280;21367;51.930;8.112;2023-03-20T09:42:27;101320.13;;;9.76;78.60
35224;BME280;21367;51.930;8.112;2023-03-20T09:47:39;101334.22;;;9.99;75.05
35224;BME280;21367;51.930;8.112;2023-03-20T09:52:55;101334.06;;;9.95;75.68
35224;BME280;21367;51.930;8.112;2023-03-20T09:58:09;101320.19;;;10.25;74.06
35224;BME280;21367;51.930;8.112;2023-03-20T10:03:19;101321.75;;;10.70;72.42
35224;BME280;21367;51.930;8.112;2023-03-20T10:08:27;101318.22;;;10.68;71.67
35224;BME280;21367;51.930;8.112;2023-03-20T10:13:53;101314.47;;;10.45;72.15
35224;BME280;21367;51.930;8.112;2023-03-20T10:19:08;101316.84;;;10.26;71.88
35224;BME280;21367;51.930;8.112;2023-03-20T10:24:22;101317.22;;;10.32;73.08
35224;BME280;21367;51.930;8.112;2023-03-20T10:29:41;101307.78;;;10.81;69.46
35224;BME280;21367;51.930;8.112;2023-03-20T10:34:56;101300.81;;;10.97;68.80
35224;BME280;21367;51.930;8.112;2023-03-20T10:40:19;101301.13;;;10.69;69.24
35224;BME280;21367;51.930;8.112;2023-03-20T10:45:35;101295.38;;;10.74;69.52
35224;BME280;21367;51.930;8.112;2023-03-20T10:50:44;101279.50;;;10.81;70.29
35224;BME280;21367;51.930;8.112;2023-03-20T10:55:49;101267.81;;;11.06;69.96
35224;BME280;21367;51.930;8.112;2023-03-20T11:00:57;101280.03;;;11.81;66.49
35224;BME280;21367;51.930;8.112;2023-03-20T11:06:04;101268.53;;;11.93;63.68
35224;BME280;21367;51.930;8.112;2023-03-20T11:11:12;101265.28;;;11.24;63.74
35224;BME280;21367;51.930;8.112;2023-03-20T11:16:23;101273.88;;;11.42;64.00
35224;BME280;21367;51.930;8.112;2023-03-20T11:21:30;101265.47;;;11.46;60.95
35224;BME280;21367;51.930;8.112;2023-03-20T11:26:36;101262.69;;;11.60;61.49
35224;BME280;21367;51.930;8.112;2023-03-20T11:31:44;101261.38;;;11.14;63.71
35224;BME280;21367;51.930;8.112;2023-03-20T11:36:57;101252.13;;;11.91;61.75
35224;BME280;21367;51.930;8.112;2023-03-20T11:42:04;101260.56;;;11.33;62.41
35224;BME280;21367;51.930;8.112;2023-03-20T11:47:31;101254.97;;;11.06;63.69
35224;BME280;21367;51.930;8.112;2023-03-20T11:52:38;101252.09;;;11.00;64.34
35224;BME280;21367;51.930;8.112;2023-03-20T11:57:42;101254.91;;;10.70;65.02
35224;BME280;21367;51.930;8.112;2023-03-20T12:02:50;101259.13;;;10.86;64.35
35224;BME280;21367;51.930;8.112;2023-03-20T12:07:56;101250.03;;;10.58;63.48
35224;BME280;21367;51.930;8.112;2023-03-20T12:13:01;101248.75;;;10.67;63.41
35224;BME280;21367;51.930;8.112;2023-03-20T12:18:11;101238.59;;;11.04;63.45
35224;BME280;21367;51.930;8.112;2023-03-20T12:23:24;101239.28;;;11.55;60.60
35224;BME280;21367;51.930;8.112;2023-03-20T12:28:37;101233.50;;;11.41;61.12
35224;BME280;21367;51.930;8.112;2023-03-20T12:33:48;101240.84;;;11.33;61.88
35224;BME280;21367;51.930;8.112;2023-03-20T12:38:54;101248.50;;;11.14;62.38
35224;BME280;21367;51.930;8.112;2023-03-20T12:49:36;101249.53;;;11.18;61.57
35224;BME280;21367;51.930;8.112;2023-03-20T12:55:20;101243.88;;;11.07;61.50
35224;BME280;21367;51.930;8.112;2023-03-20T13:00:33;101228.53;;;11.64;60.49
35224;BME280;21367;51.930;8.112;2023-03-20T13:05:57;101228.38;;;11.23;61.78
35224;BME280;21367;51.930;8.112;2023-03-20T13:11:10;101238.63;;;10.70;63.31
35224;BME280;21367;51.930;8.112;2023-03-20T13:16:23;101225.34;;;10.78;63.75
35224;BME280;21367;51.930;8.112;2023-03-20T13:21:40;101226.97;;;11.30;62.33
35224;BME280;21367;51.930;8.112;2023-03-20T13:26:51;101227.19;;;10.99;63.14
35224;BME280;21367;51.930;8.112;2023-03-20T13:32:05;101228.72;;;10.95;62.97
35224;BME280;21367;51.930;8.112;2023-03-20T13:37:22;101230.75;;;10.67;63.71
35224;BME280;21367;51.930;8.112;2023-03-20T13:42:36;101222.78;;;10.44;65.05
35224;BME280;21367;51.930;8.112;2023-03-20T13:47:44;101229.59;;;10.27;65.68
35224;BME280;21367;51.930;8.112;2023-03-20T13:52:56;101220.91;;;10.25;66.92
35224;BME280;21367;51.930;8.112;2023-03-20T13:58:16;101213.59;;;10.49;66.42
35224;BME280;21367;51.930;8.112;2023-03-20T14:03:26;101214.84;;;10.92;66.72
35224;BME280;21367;51.930;8.112;2023-03-20T14:08:35;101211.25;;;11.24;65.32
35224;BME280;21367;51.930;8.112;2023-03-20T14:13:44;101213.28;;;10.43;67.58
35224;BME280;21367;51.930;8.112;2023-03-20T14:19:03;101219.88;;;10.38;68.09
35224;BME280;21367;51.930;8.112;2023-03-20T14:24:13;101225.41;;;10.46;68.90
35224;BME280;21367;51.930;8.112;2023-03-20T14:29:30;101220.94;;;10.41;69.31
35224;BME280;21367;51.930;8.112;2023-03-20T14:34:45;101224.63;;;10.64;69.24
35224;BME280;21367;51.930;8.112;2023-03-20T14:39:56;101217.09;;;10.68;69.36
35224;BME280;21367;51.930;8.112;2023-03-20T14:45:26;101210.19;;;10.67;70.64
35224;BME280;21367;51.930;8.112;2023-03-20T14:50:37;101211.69;;;10.97;69.20
35224;BME280;21367;51.930;8.112;2023-03-20T14:56:06;101212.66;;;10.31;70.02
35224;BME280;21367;51.930;8.112;2023-03-20T15:01:15;101205.50;;;9.92;72.54
35224;BME280;21367;51.930;8.112;2023-03-20T15:06:21;101201.19;;;10.40;72.62
35224;BME280;21367;51.930;8.112;2023-03-20T15:11:30;101189.84;;;10.53;71.19
35224;BME280;21367;51.930;8.112;2023-03-20T15:16:36;101188.34;;;9.75;72.55
35224;BME280;21367;51.930;8.112;2023-03-20T15:21:45;101186.44;;;10.54;71.83
35224;BME280;21367;51.930;8.112;2023-03-20T15:26:58;101182.59;;;10.46;72.10
35224;BME280;21367;51.930;8.112;2023-03-20T15:32:02;101178.22;;;10.11;73.16
35224;BME280;21367;51.930;8.112;2023-03-20T15:37:08;101179.66;;;10.38;72.10
35224;BME280;21367;51.930;8.112;2023-03-20T15:42:23;101174.34;;;10.03;73.92
35224;BME280;21367;51.930;8.112;2023-03-20T15:47:34;101182.13;;;10.20;73.17
35224;BME280;21367;51.930;8.112;2023-03-20T15:52:46;101165.13;;;10.23;74.37
35224;BME280;21367;51.930;8.112;2023-03-20T15:57:56;101169.25;;;9.54;76.73
35224;BME280;21367;51.930;8.112;2023-03-20T16:03:04;101160.22;;;9.29;76.83
35224;BME280;21367;51.930;8.112;2023-03-20T16:08:12;101163.41;;;9.25;77.33
35224;BME280;21367;51.930;8.112;2023-03-20T16:13:19;101162.47;;;9.39;77.38
35224;BME280;21367;51.930;8.112;2023-03-20T16:18:24;101157.66;;;9.29;77.83
35224;BME280;21367;51.930;8.112;2023-03-20T16:23:33;101157.94;;;9.50;77.09
35224;BME280;21367;51.930;8.112;2023-03-20T16:28:41;101150.06;;;9.47;78.11
35224;BME280;21367;51.930;8.112;2023-03-20T16:33:48;101155.28;;;9.17;79.87
35224;BME280;21367;51.930;8.112;2023-03-20T16:38:55;101163.34;;;8.77;81.69
35224;BME280;21367;51.930;8.112;2023-03-20T16:44:05;101159.63;;;8.87;83.30
35224;BME280;21367;51.930;8.112;2023-03-20T16:54:59;101170.78;;;9.19;83.39
35224;BME280;21367;51.930;8.112;2023-03-20T17:00:19;101171.09;;;8.94;85.20
35224;BME280;21367;51.930;8.112;2023-03-20T17:05:34;101175.63;;;8.68;85.76
35224;BME280;21367;51.930;8.112;2023-03-20T17:10:48;101174.25;;;8.16;86.69
35224;BME280;21367;51.930;8.112;2023-03-20T17:15:56;101164.94;;;8.61;87.07
35224;BME280;21367;51.930;8.112;2023-03-20T17:21:02;101163.94;;;8.58;86.40
35224;BME280;21367;51.930;8.112;2023-03-20T17:26:10;101170.09;;;8.32;87.06
35224;BME280;21367;51.930;8.112;2023-03-20T17:31:17;101164.28;;;8.35;87.59
35224;BME280;21367;51.930;8.112;2023-03-20T17:36:23;101166.50;;;8.73;88.49
35224;BME280;21367;51.930;8.112;2023-03-20T17:41:28;101171.38;;;8.54;87.91
35224;BME280;21367;51.930;8.112;2023-03-20T17:46:35;101174.56;;;8.65;86.70
35224;BME280;21367;51.930;8.112;2023-03-20T17:51:39;101175.63;;;8.53;87.11
35224;BME280;21367;51.930;8.112;2023-03-20T17:56:43;101180.50;;;8.21;89.29
35224;BME280;21367;51.930;8.112;2023-03-20T18:01:49;101182.50;;;8.54;88.23
35224;BME280;21367;51.930;8.112;2023-03-20T18:06:55;101181.38;;;8.49;88.55
35224;BME280;21367;51.930;8.112;2023-03-20T18:12:01;101184.81;;;8.50;88.62
35224;BME280;21367;51.930;8.112;2023-03-20T18:17:10;101188.72;;;8.43;89.08
35224;BME280;21367;51.930;8.112;2023-03-20T18:22:14;101191.97;;;8.41;89.24
35224;BME280;21367;51.930;8.112;2023-03-20T18:27:18;101194.28;;;8.51;89.70
35224;BME280;21367;51.930;8.112;2023-03-20T18:32:25;101197.28;;;8.44;90.03
35224;BME280;21367;51.930;8.112;2023-03-20T18:37:28;101189.69;;;8.75;89.20
35224;BME280;21367;51.930;8.112;2023-03-20T18:42:32;101194.59;;;8.42;89.49
35224;BME280;21367;51.930;8.112;2023-03-20T18:47:39;101193.94;;;8.74;89.31
35224;BME280;21367;51.930;8.112;2023-03-20T18:52:43;101195.22;;;8.68;90.12
35224;BME280;21367;51.930;8.112;2023-03-20T18:57:48;101186.41;;;8.77;89.67
35224;BME280;21367;51.930;8.112;2023-03-20T19:02:55;101187.22;;;8.33;91.80
35224;BME280;21367;51.930;8.112;2023-03-20T19:07:59;101185.91;;;8.25;94.51
35224;BME280;21367;51.930;8.112;2023-03-20T19:13:04;101191.13;;;8.27;95.66
35224;BME280;21367;51.930;8.112;2023-03-20T19:18:15;101178.06;;;8.22;96.32
35224;BME280;21367;51.930;8.112;2023-03-20T19:23:20;101181.16;;;8.31;96.60
35224;BME280;21367;51.930;8.112;2023-03-20T19:28:26;101184.06;;;8.23;96.10
35224;BME280;21367;51.930;8.112;2023-03-20T19:33:35;101170.41;;;8.37;95.63
35224;BME280;21367;51.930;8.112;2023-03-20T19:38:38;101166.16;;;8.67;94.79
35224;BME280;21367;51.930;8.112;2023-03-20T19:43:42;101178.53;;;8.45;95.37
35224;BME280;21367;51.930;8.112;2023-03-20T19:48:49;101170.22;;;8.49;96.95
35224;BME280;21367;51.930;8.112;2023-03-20T19:53:52;101170.59;;;8.40;96.41
35224;BME280;21367;51.930;8.112;2023-03-20T19:58:57;101164.16;;;8.47;95.49
35224;BME280;21367;51.930;8.112;2023-03-20T20:04:03;101162.38;;;8.46;96.14
35224;BME280;21367;51.930;8.112;2023-03-20T20:09:09;101156.28;;;8.44;95.67
35224;BME280;21367;51.930;8.112;2023-03-20T20:14:13;101157.75;;;8.25;96.96
35224;BME280;21367;51.930;8.112;2023-03-20T20:19:20;101148.22;;;8.38;95.34
35224;BME280;21367;51.930;8.112;2023-03-20T20:24:24;101149.31;;;8.41;95.24
35224;BME280;21367;51.930;8.112;2023-03-20T20:29:29;101144.94;;;8.25;94.88
35224;BME280;21367;51.930;8.112;2023-03-20T20:34:35;101136.84;;;8.47;93.89
35224;BME280;21367;51.930;8.112;2023-03-20T20:39:40;101142.63;;;8.43;94.35
35224;BME280;21367;51.930;8.112;2023-03-20T20:44:44;101140.19;;;8.31;95.52
35224;BME280;21367;51.930;8.112;2023-03-20T20:49:53;101134.19;;;8.31;97.22
35224;BME280;21367;51.930;8.112;2023-03-20T20:54:57;101133.66;;;8.22;99.30
35224;BME280;21367;51.930;8.112;2023-03-20T21:00:01;101134.41;;;8.21;99.99
35224;BME280;21367;51.930;8.112;2023-03-20T21:05:13;101130.81;;;8.17;100.00
35224;BME280;21367;51.930;8.112;2023-03-20T21:10:18;101127.81;;;8.24;100.00
35224;BME280;21367;51.930;8.112;2023-03-20T21:15:22;101119.97;;;8.21;100.00
35224;BME280;21367;51.930;8.112;2023-03-20T21:20:31;101127.03;;;8.25;99.77
35224;BME280;21367;51.930;8.112;2023-03-20T21:25:36;101122.34;;;8.33;98.47
35224;BME280;21367;51.930;8.112;2023-03-20T21:30:39;101119.81;;;8.63;96.68
35224;BME280;21367;51.930;8.112;2023-03-20T21:35:47;101120.81;;;8.37;96.89
35224;BME280;21367;51.930;8.112;2023-03-20T21:40:52;101105.84;;;8.43;96.70
35224;BME280;21367;51.930;8.112;2023-03-20T21:45:56;101118.63;;;8.72;94.72
35224;BME280;21367;51.930;8.112;2023-03-20T21:51:05;101109.91;;;8.54;94.63
35224;BME280;21367;51.930;8.112;2023-03-20T21:56:09;101107.28;;;8.52;94.15
35224;BME280;21367;51.930;8.112;2023-03-20T22:01:14;101107.56;;;8.88;92.94
35224;BME280;21367;51.930;8.112;2023-03-20T22:06:21;101116.34;;;8.62;93.22
35224;BME280;21367;51.930;8.112;2023-03-20T22:11:25;101104.41;;;8.77;92.55
35224;BME280;21367;51.930;8.112;2023-03-20T22:16:30;101099.75;;;8.87;91.59
35224;BME280;21367;51.930;8.112;2023-03-20T22:21:37;101109.91;;;9.00;91.69
35224;BME280;21367;51.930;8.112;2023-03-20T22:26:46;101110.19;;;8.90;91.12
35224;BME280;21367;51.930;8.112;2023-03-20T22:31:50;101101.28;;;8.83;91.17
35224;BME280;21367;51.930;8.112;2023-03-20T22:36:58;101096.28;;;9.01;90.79
35224;BME280;21367;51.930;8.112;2023-03-20T22:42:02;101099.81;;;9.03;90.24
35224;BME280;21367;51.930;8.112;2023-03-20T22:47:06;101090.09;;;8.81;90.78
35224;BME280;21367;51.930;8.112;2023-03-20T22:52:17;101093.06;;;9.05;90.35
35224;BME280;21367;51.930;8.112;2023-03-20T22:57:21;101079.06;;;9.15;89.75
35224;BME280;21367;51.930;8.112;2023-03-20T23:02:25;101080.44;;;9.08;89.92
35224;BME280;21367;51.930;8.112;2023-03-20T23:07:32;101088.72;;;9.19;90.41
35224;BME280;21367;51.930;8.112;2023-03-20T23:12:36;101089.41;;;9.00;90.26
35224;BME280;21367;51.930;8.112;2023-03-20T23:17:42;101085.13;;;8.84;90.84
35224;BME280;21367;51.930;8.112;2023-03-20T23:22:49;101089.25;;;9.13;90.71
35224;BME280;21367;51.930;8.112;2023-03-20T23:27:53;101085.69;;;8.95;91.04
35224;BME280;21367;51.930;8.112;2023-03-20T23:32:56;101075.78;;;9.01;89.70
35224;BME280;21367;51.930;8.112;2023-03-20T23:38:03;101074.75;;;9.30;88.61
35224;BME280;21367;51.930;8.112;2023-03-20T23:43:07;101082.28;;;9.11;89.66
35224;BME280;21367;51.930;8.112;2023-03-20T23:48:11;101071.72;;;9.21;89.36
35224;BME280;21367;51.930;8.112;2023-03-20T23:53:18;101073.16;;;9.16;89.97
35224;BME280;21367;51.930;8.112;2023-03-20T23:58:23;101074.81;;;8.99;90.73
